createdAt,value
2023-02-17T00:04:05.992Z,101699.59
2023-02-17T00:09:08.869Z,101689.91
2023-02-17T00:14:13.225Z,101692.66
2023-02-17T00:19:26.261Z,101698.78
2023-02-17T00:24:29.972Z,101700.59
2023-02-17T00:29:32.847Z,101691.97
2023-02-17T00:34:37.133Z,101698.06
2023-02-17T00:39:39.999Z,101694.84
2023-02-17T00:44:42.884Z,101687.75
2023-02-17T00:49:47.177Z,101686.25
2023-02-17T00:54:50.123Z,101686.72
2023-02-17T00:59:52.994Z,101680.72
2023-02-17T01:04:57.292Z,101687.72
2023-02-17T01:10:00.177Z,101687.97
2023-02-17T01:15:03.082Z,101692.34
2023-02-17T01:20:08.464Z,101689.78
2023-02-17T01:25:11.337Z,101695.72
2023-02-17T01:30:15.221Z,101694.09
2023-02-17T01:35:19.525Z,101692.25
2023-02-17T01:40:22.453Z,101689.69
2023-02-17T01:45:34.234Z,101688.09
2023-02-17T01:50:40.529Z,101689.59
2023-02-17T01:55:44.082Z,101696.41
2023-02-17T02:00:47.580Z,101689.00
2023-02-17T02:05:52.118Z,101692.72
2023-02-17T02:10:54.976Z,101687.38
2023-02-17T02:16:02.853Z,101688.94
2023-02-17T02:21:25.226Z,101685.41
2023-02-17T02:26:45.732Z,101681.09
2023-02-17T02:31:58.754Z,101680.31
2023-02-17T02:37:07.971Z,101685.66
2023-02-17T02:42:12.636Z,101683.94
2023-02-17T02:47:30.295Z,101677.97
2023-02-17T02:52:38.500Z,101676.16
2023-02-17T02:57:47.561Z,101677.53
2023-02-17T03:02:52.725Z,101672.41
2023-02-17T03:08:00.337Z,101672.94
2023-02-17T03:13:03.452Z,101668.03
2023-02-17T03:18:06.609Z,101670.84
2023-02-17T03:23:10.991Z,101673.72
2023-02-17T03:28:13.863Z,101672.75
2023-02-17T03:33:16.770Z,101673.09
2023-02-17T03:38:21.027Z,101668.97
2023-02-17T03:43:23.915Z,101668.53
2023-02-17T03:48:26.782Z,101668.19
2023-02-17T03:53:31.152Z,101678.69
2023-02-17T03:58:34.049Z,101675.13
2023-02-17T04:03:37.257Z,101681.00
2023-02-17T04:08:41.556Z,101687.25
2023-02-17T04:13:44.436Z,101691.81
2023-02-17T04:18:47.524Z,101691.47
2023-02-17T04:23:51.800Z,101688.31
2023-02-17T04:28:54.663Z,101696.25
2023-02-17T04:33:57.546Z,101690.00
2023-02-17T04:39:01.819Z,101691.63
2023-02-17T04:44:04.699Z,101698.41
2023-02-17T04:49:07.564Z,101689.63
2023-02-17T04:54:11.858Z,101693.59
2023-02-17T04:59:14.764Z,101702.59
2023-02-17T05:04:17.621Z,101712.47
2023-02-17T05:09:21.951Z,101717.06
2023-02-17T05:14:24.827Z,101725.13
2023-02-17T05:19:27.749Z,101723.41
2023-02-17T05:24:32.193Z,101714.75
2023-02-17T05:29:35.192Z,101713.59
2023-02-17T05:34:38.117Z,101719.06
2023-02-17T05:39:42.439Z,101716.38
2023-02-17T05:44:45.317Z,101724.22
2023-02-17T05:49:48.209Z,101731.25
2023-02-17T05:54:52.484Z,101730.59
2023-02-17T05:59:55.321Z,101735.84
2023-02-17T06:04:58.321Z,101741.13
2023-02-17T06:10:02.644Z,101737.75
2023-02-17T06:15:05.687Z,101757.06
2023-02-17T06:20:09.295Z,101748.31
2023-02-17T06:25:13.575Z,101761.47
2023-02-17T06:30:17.727Z,101762.38
2023-02-17T06:35:20.750Z,101779.78
2023-02-17T06:40:27.498Z,101771.06
2023-02-17T06:45:31.411Z,101776.38
2023-02-17T06:50:34.342Z,101751.88
2023-02-17T06:55:39.691Z,101763.22
2023-02-17T07:00:42.552Z,101765.88
2023-02-17T07:05:45.455Z,101758.06
2023-02-17T07:10:49.756Z,101764.19
2023-02-17T07:15:52.607Z,101762.50
2023-02-17T07:20:55.462Z,101775.56
2023-02-17T07:26:02.388Z,101775.56
2023-02-17T07:31:08.846Z,101778.94
2023-02-17T07:36:12.626Z,101777.13
2023-02-17T07:41:17.986Z,101786.75
2023-02-17T07:46:21.169Z,101793.78
2023-02-17T07:51:24.213Z,101801.56
2023-02-17T07:56:30.278Z,101804.19
2023-02-17T08:01:33.236Z,101810.25
2023-02-17T08:06:36.205Z,101804.81
2023-02-17T08:11:58.309Z,101812.00
2023-02-17T08:17:01.234Z,101806.44
2023-02-17T08:22:04.281Z,101816.09
2023-02-17T08:27:10.005Z,101814.09
2023-02-17T08:32:13.178Z,101811.84
2023-02-17T08:37:16.122Z,101815.06
2023-02-17T08:42:20.408Z,101813.53
2023-02-17T08:47:23.269Z,101814.75
2023-02-17T08:52:26.146Z,101816.81
2023-02-17T08:57:30.391Z,101804.38
2023-02-17T09:02:33.270Z,101799.44
2023-02-17T09:07:36.196Z,101791.88
2023-02-17T09:12:40.573Z,101784.59
2023-02-17T09:17:43.465Z,101786.94
2023-02-17T09:22:46.490Z,101785.56
2023-02-17T09:27:50.866Z,101797.63
2023-02-17T09:32:53.917Z,101791.13
2023-02-17T09:37:56.936Z,101787.91
2023-02-17T09:43:01.436Z,101790.06
2023-02-17T09:48:07.488Z,101796.56
2023-02-17T09:53:13.764Z,101786.50
2023-02-17T09:58:20.559Z,101790.31
2023-02-17T10:03:26.428Z,101778.84
2023-02-17T10:08:32.335Z,101789.56
2023-02-17T10:13:38.144Z,101793.06
2023-02-17T10:18:45.075Z,101776.22
2023-02-17T10:23:48.160Z,101774.41
2023-02-17T10:28:53.871Z,101761.84
2023-02-17T10:34:02.755Z,101756.06
2023-02-17T10:39:11.229Z,101755.88
2023-02-17T10:44:19.463Z,101752.19
2023-02-17T10:49:29.652Z,101752.56
2023-02-17T10:54:38.834Z,101759.72
2023-02-17T10:59:44.364Z,101748.44
2023-02-17T11:04:49.013Z,101743.84
2023-02-17T11:09:53.256Z,101737.50
2023-02-17T11:14:57.698Z,101733.28
2023-02-17T11:20:04.217Z,101726.78
2023-02-17T11:25:09.468Z,101708.47
2023-02-17T11:30:18.918Z,101691.69
2023-02-17T11:35:23.859Z,101693.00
2023-02-17T11:40:27.719Z,101696.78
2023-02-17T11:45:36.768Z,101692.06
2023-02-17T11:50:46.999Z,101686.00
2023-02-17T11:55:56.232Z,101682.97
2023-02-17T12:01:08.424Z,101670.47
2023-02-17T12:06:16.630Z,101650.44
2023-02-17T12:11:24.856Z,101638.75
2023-02-17T12:16:43.204Z,101618.50
2023-02-17T12:21:55.312Z,101626.66
2023-02-17T12:27:06.512Z,101632.97
2023-02-17T12:32:22.740Z,101612.41
2023-02-17T12:37:27.943Z,101591.53
2023-02-17T12:42:35.138Z,101595.47
2023-02-17T12:47:47.342Z,101579.38
2023-02-17T12:52:54.547Z,101567.97
2023-02-17T12:58:00.736Z,101569.84
2023-02-17T13:03:06.939Z,101546.72
2023-02-17T13:08:14.175Z,101534.56
2023-02-17T13:13:29.376Z,101523.16
2023-02-17T13:18:37.575Z,101519.22
2023-02-17T13:23:43.773Z,101517.53
2023-02-17T13:28:48.015Z,101498.38
2023-02-17T13:33:54.465Z,101495.38
2023-02-17T13:39:01.443Z,101483.81
2023-02-17T13:44:23.665Z,101477.84
2023-02-17T13:49:33.873Z,101456.69
2023-02-17T13:54:38.067Z,101453.59
2023-02-17T13:59:43.251Z,101465.44
2023-02-17T14:04:49.466Z,101460.50
2023-02-17T14:09:55.637Z,101452.66
2023-02-17T14:14:59.812Z,101448.25
2023-02-17T14:20:07.021Z,101436.22
2023-02-17T14:25:14.235Z,101431.59
2023-02-17T14:30:29.362Z,101422.19
2023-02-17T14:35:39.669Z,101415.72
2023-02-17T14:40:44.881Z,101396.41
2023-02-17T14:45:49.049Z,101392.09
2023-02-17T14:50:58.336Z,101380.63
2023-02-17T14:56:05.724Z,101386.09
2023-02-17T15:01:13.753Z,101377.81
2023-02-17T15:06:23.498Z,101369.44
2023-02-17T15:11:31.147Z,101374.22
2023-02-17T15:16:36.360Z,101367.44
2023-02-17T15:21:46.563Z,101367.41
2023-02-17T15:26:51.765Z,101372.13
2023-02-17T15:31:57.059Z,101370.03
2023-02-17T15:37:04.309Z,101353.44
2023-02-17T15:42:08.481Z,101349.69
2023-02-17T15:47:14.979Z,101351.50
2023-02-17T15:52:19.345Z,101351.28
2023-02-17T15:57:23.480Z,101355.22
2023-02-17T16:02:26.896Z,101354.56
2023-02-17T16:07:31.251Z,101355.53
2023-02-17T16:12:34.288Z,101356.63
2023-02-17T16:17:37.293Z,101358.84
2023-02-17T16:22:42.839Z,101352.41
2023-02-17T16:27:49.020Z,101353.31
2023-02-17T16:32:54.203Z,101348.88
2023-02-17T16:38:02.415Z,101347.59
2023-02-17T16:43:06.595Z,101342.69
2023-02-17T16:48:10.777Z,101339.47
2023-02-17T16:53:19.982Z,101354.59
2023-02-17T16:58:25.178Z,101364.09
2023-02-17T17:03:29.445Z,101354.97
2023-02-17T17:08:36.552Z,101355.72
2023-02-17T17:13:40.745Z,101345.19
2023-02-17T17:18:45.942Z,101333.81
2023-02-17T17:23:53.145Z,101338.97
2023-02-17T17:28:58.322Z,101340.72
2023-02-17T17:34:02.519Z,101339.13
2023-02-17T17:39:10.732Z,101345.22
2023-02-17T17:44:15.922Z,101336.22
2023-02-17T17:49:20.112Z,101339.03
2023-02-17T17:54:28.320Z,101345.16
2023-02-17T17:59:32.507Z,101349.91
2023-02-17T18:04:36.737Z,101361.97
2023-02-17T18:09:44.885Z,101371.81
2023-02-17T18:14:51.097Z,101375.41
2023-02-17T18:19:56.313Z,101380.88
2023-02-17T18:25:03.491Z,101395.63
2023-02-17T18:30:08.708Z,101391.25
2023-02-17T18:35:12.860Z,101396.44
2023-02-17T18:40:21.063Z,101414.63
2023-02-17T18:45:27.256Z,101404.44
2023-02-17T18:50:33.321Z,101404.53
2023-02-17T18:55:41.650Z,101411.06
2023-02-17T19:00:45.852Z,101415.56
2023-02-17T19:05:50.042Z,101433.34
2023-02-17T19:10:57.245Z,101427.13
2023-02-17T19:16:07.763Z,101437.81
2023-02-17T19:21:12.630Z,101441.34
2023-02-17T19:26:19.818Z,101437.88
2023-02-17T19:31:24.071Z,101424.13
2023-02-17T19:36:28.196Z,101433.16
2023-02-17T19:41:35.992Z,101454.66
2023-02-17T19:46:40.642Z,101456.50
2023-02-17T19:51:44.790Z,101449.38
2023-02-17T19:56:51.996Z,101444.28
2023-02-17T20:01:56.274Z,101443.38
2023-02-17T20:07:02.377Z,101447.72
2023-02-17T20:12:09.576Z,101444.91
2023-02-17T20:17:13.762Z,101441.75
2023-02-17T20:22:17.944Z,101441.56
2023-02-17T20:27:25.139Z,101456.81
2023-02-17T20:32:29.410Z,101451.69
2023-02-17T20:37:33.511Z,101452.06
2023-02-17T20:42:40.727Z,101455.19
2023-02-17T20:47:44.804Z,101454.94
2023-02-17T20:52:50.103Z,101464.00
2023-02-17T20:57:57.347Z,101465.19
2023-02-17T21:03:01.610Z,101470.19
2023-02-17T21:08:05.737Z,101487.22
2023-02-17T21:13:11.929Z,101482.72
2023-02-17T21:18:16.132Z,101502.16
2023-02-17T21:23:21.316Z,101503.56
2023-02-17T21:28:28.528Z,101514.53
2023-02-17T21:33:32.724Z,101514.03
2023-02-17T21:38:36.906Z,101520.81
2023-02-17T21:44:00.170Z,101528.31
2023-02-17T21:49:03.112Z,101539.66
2023-02-17T21:54:06.356Z,101537.06
2023-02-17T21:59:10.615Z,101542.38
2023-02-17T22:04:13.496Z,101538.63
2023-02-17T22:09:18.137Z,101532.06
2023-02-17T22:14:22.906Z,101534.72
2023-02-17T22:19:26.074Z,101529.34
2023-02-17T22:24:29.108Z,101534.66
2023-02-17T22:29:33.430Z,101548.22
2023-02-17T22:34:36.332Z,101533.88
2023-02-17T22:39:39.184Z,101530.84
2023-02-17T22:44:43.447Z,101534.25
2023-02-17T22:49:46.346Z,101536.59
2023-02-17T22:54:49.223Z,101537.25
2023-02-17T22:59:53.475Z,101531.31
2023-02-17T23:04:56.336Z,101521.50
2023-02-17T23:09:59.208Z,101524.13
2023-02-17T23:15:03.480Z,101519.59
2023-02-17T23:20:06.772Z,101529.72
2023-02-17T23:25:09.858Z,101528.19
2023-02-17T23:30:19.269Z,101530.03
2023-02-17T23:35:22.163Z,101518.91
2023-02-17T23:40:25.084Z,101512.88
2023-02-17T23:45:29.562Z,101518.72
2023-02-17T23:50:32.457Z,101510.09
2023-02-17T23:55:35.496Z,101512.88
